createdAt,value
2019-05-09T00:04:39.902Z,3.10
2019-05-09T00:09:45.387Z,3.80
2019-05-09T00:14:50.802Z,2.97
2019-05-09T00:19:58.442Z,2.80
2019-05-09T00:25:03.993Z,3.13
2019-05-09T00:30:09.802Z,4.43
2019-05-09T00:35:46.299Z,6.07
2019-05-09T00:40:58.391Z,3.70
2019-05-09T00:46:18.125Z,4.33
2019-05-09T00:51:23.589Z,2.70
2019-05-09T00:56:29.011Z,4.87
2019-05-09T01:01:34.556Z,3.60
2019-05-09T01:06:40.054Z,5.40
2019-05-09T01:11:45.469Z,3.87
2019-05-09T01:16:50.888Z,4.60
2019-05-09T01:21:56.518Z,4.80
2019-05-09T01:27:03.638Z,6.23
2019-05-09T01:32:16.326Z,3.90
2019-05-09T01:37:23.717Z,6.27
2019-05-09T01:42:28.871Z,5.00
2019-05-09T01:47:34.440Z,4.07
2019-05-09T01:52:40.122Z,7.53
2019-05-09T01:57:47.811Z,5.97
2019-05-09T02:02:54.074Z,3.30
2019-05-09T02:07:59.656Z,7.27
2019-05-09T02:13:05.266Z,3.63
2019-05-09T02:18:16.833Z,4.20
2019-05-09T02:23:23.334Z,5.13
2019-05-09T02:28:29.109Z,9.33
2019-05-09T02:33:34.903Z,4.97
2019-05-09T02:38:40.591Z,8.60
2019-05-09T02:43:49.273Z,3.80
2019-05-09T02:48:53.124Z,4.97
2019-05-09T02:53:58.886Z,4.57
2019-05-09T02:59:11.619Z,4.70
2019-05-09T03:04:18.900Z,3.63
2019-05-09T03:09:24.290Z,7.70
2019-05-09T03:14:29.740Z,3.77
2019-05-09T03:19:38.413Z,5.50
2019-05-09T03:24:42.427Z,6.13
2019-05-09T03:29:51.968Z,2.90
2019-05-09T03:34:58.081Z,6.17
2019-05-09T03:40:03.568Z,4.20
2019-05-09T03:45:10.641Z,6.50
2019-05-09T03:50:17.984Z,3.53
2019-05-09T03:55:30.633Z,4.20
2019-05-09T04:00:37.569Z,4.07
2019-05-09T04:05:55.328Z,4.77
2019-05-09T04:10:51.816Z,7.20
2019-05-09T04:15:58.252Z,5.47
2019-05-09T04:21:04.172Z,6.67
2019-05-09T04:26:19.289Z,6.53
2019-05-09T04:31:24.760Z,4.00
2019-05-09T04:36:38.963Z,5.77
2019-05-09T04:41:44.395Z,3.10
2019-05-09T04:46:54.127Z,6.10
2019-05-09T04:51:58.381Z,5.47
2019-05-09T04:57:03.961Z,4.63
2019-05-09T05:02:34.484Z,5.93
2019-05-09T05:07:39.923Z,5.00
2019-05-09T05:12:45.426Z,6.80
2019-05-09T05:17:50.883Z,6.60
2019-05-09T05:23:02.055Z,3.70
2019-05-09T05:28:08.558Z,5.63
2019-05-09T05:33:33.161Z,4.40
2019-05-09T05:38:38.772Z,5.50
2019-05-09T05:43:44.891Z,3.30
2019-05-09T05:48:51.943Z,2.63
2019-05-09T05:53:57.498Z,3.77
2019-05-09T05:59:03.098Z,2.33
2019-05-09T06:04:08.557Z,2.63
2019-05-09T06:09:13.963Z,3.13
2019-05-09T06:14:19.420Z,4.97
2019-05-09T06:19:25.233Z,2.67
2019-05-09T06:24:30.702Z,2.55
2019-05-09T06:29:38.573Z,6.50
2019-05-09T06:34:43.916Z,3.93
2019-05-09T06:39:49.635Z,2.80
2019-05-09T06:45:07.587Z,2.13
2019-05-09T06:50:14.928Z,3.20
2019-05-09T06:55:20.627Z,3.37
2019-05-09T07:00:45.008Z,2.53
2019-05-09T07:06:02.391Z,2.03
2019-05-09T07:11:08.175Z,3.30
2019-05-09T07:16:13.596Z,5.43
2019-05-09T07:21:19.157Z,4.73
2019-05-09T07:26:30.022Z,2.70
2019-05-09T07:31:47.976Z,3.43
2019-05-09T07:36:53.250Z,4.27
2019-05-09T07:41:58.884Z,3.23
2019-05-09T07:47:07.605Z,3.43
2019-05-09T07:52:13.235Z,2.37
2019-05-09T07:57:18.882Z,4.30
2019-05-09T08:02:24.388Z,4.83
2019-05-09T08:07:29.881Z,2.67
2019-05-09T08:12:35.295Z,3.27
2019-05-09T08:17:40.873Z,2.40
2019-05-09T08:22:57.327Z,4.10
2019-05-09T08:27:53.620Z,2.43
2019-05-09T08:33:00.050Z,6.83
2019-05-09T08:38:08.285Z,3.10
2019-05-09T08:43:12.877Z,3.33
2019-05-09T08:48:18.478Z,3.30
2019-05-09T08:53:23.905Z,3.20
2019-05-09T08:58:29.530Z,2.23
2019-05-09T09:03:35.021Z,5.03
2019-05-09T09:08:40.461Z,3.27
2019-05-09T09:13:48.108Z,3.47
2019-05-09T09:18:53.219Z,3.40
2019-05-09T09:23:58.720Z,4.57
2019-05-09T09:29:04.209Z,3.53
2019-05-09T09:34:09.650Z,3.20
2019-05-09T09:39:15.098Z,4.57
2019-05-09T09:44:22.443Z,4.50
2019-05-09T09:49:29.390Z,3.47
2019-05-09T09:54:35.118Z,2.60
2019-05-09T09:59:48.470Z,2.70
2019-05-09T10:04:53.686Z,2.27
2019-05-09T10:09:59.104Z,2.10
2019-05-09T10:15:11.585Z,1.87
2019-05-09T10:20:21.874Z,1.13
2019-05-09T10:25:27.663Z,2.53
2019-05-09T10:30:34.865Z,3.40
2019-05-09T10:35:40.317Z,2.10
2019-05-09T10:40:48.298Z,1.70
2019-05-09T10:46:10.051Z,1.50
2019-05-09T10:51:15.532Z,1.47
2019-05-09T10:56:20.966Z,1.13
2019-05-09T11:01:29.197Z,3.23
2019-05-09T11:06:33.585Z,1.93
2019-05-09T11:11:39.257Z,3.80
2019-05-09T11:16:49.097Z,1.30
2019-05-09T11:21:51.959Z,2.17
2019-05-09T11:26:58.878Z,1.47
2019-05-09T11:32:04.462Z,3.73
2019-05-09T11:37:09.985Z,1.10
2019-05-09T11:42:17.709Z,2.83
2019-05-09T11:47:33.700Z,0.80
2019-05-09T11:52:31.717Z,1.20
2019-05-09T11:57:38.517Z,1.13
2019-05-09T12:02:44.102Z,1.17
2019-05-09T12:07:49.495Z,1.40
2019-05-09T12:12:57.468Z,4.07
2019-05-09T12:18:08.383Z,1.23
2019-05-09T12:23:09.291Z,1.23
2019-05-09T12:28:14.760Z,2.70
2019-05-09T12:33:20.306Z,1.30
2019-05-09T12:38:27.772Z,1.20
2019-05-09T12:43:33.436Z,1.47
2019-05-09T12:48:39.082Z,2.40
2019-05-09T12:53:44.675Z,1.70
2019-05-09T12:58:50.166Z,3.73
2019-05-09T13:03:58.057Z,2.37
2019-05-09T13:09:02.859Z,1.73
2019-05-09T13:14:09.957Z,2.17
2019-05-09T13:19:18.505Z,2.13
2019-05-09T13:24:24.231Z,1.17
2019-05-09T13:29:29.743Z,1.13
2019-05-09T13:34:37.819Z,3.43
2019-05-09T13:39:42.380Z,2.70
2019-05-09T13:44:47.818Z,1.97
2019-05-09T13:49:55.947Z,1.80
2019-05-09T13:55:00.722Z,0.97
2019-05-09T14:00:08.706Z,2.17
2019-05-09T14:05:13.462Z,1.10
2019-05-09T14:10:18.918Z,1.13
2019-05-09T14:15:24.343Z,1.73
2019-05-09T14:20:29.780Z,1.07
2019-05-09T14:25:37.911Z,4.67
2019-05-09T14:30:42.396Z,1.10
2019-05-09T14:35:47.965Z,1.10
2019-05-09T14:40:53.478Z,1.13
2019-05-09T14:45:58.939Z,1.37
2019-05-09T14:51:04.429Z,2.30
2019-05-09T14:56:09.902Z,2.33
2019-05-09T15:01:15.310Z,1.73
2019-05-09T15:06:20.729Z,1.43
2019-05-09T15:11:28.224Z,3.37
2019-05-09T15:16:33.971Z,1.50
2019-05-09T15:21:39.634Z,2.80
2019-05-09T15:26:45.101Z,3.00
2019-05-09T15:31:54.123Z,2.00
2019-05-09T15:36:58.331Z,1.43
2019-05-09T15:42:04.281Z,4.63
2019-05-09T15:47:18.201Z,1.93
2019-05-09T15:52:23.499Z,1.93
2019-05-09T15:57:29.034Z,3.33
2019-05-09T16:02:34.481Z,1.90
2019-05-09T16:07:40.101Z,1.77
2019-05-09T16:12:45.539Z,2.20
2019-05-09T16:17:51.119Z,2.07
2019-05-09T16:22:57.278Z,2.37
2019-05-09T16:28:02.759Z,2.67
2019-05-09T16:33:08.319Z,1.90
2019-05-09T16:38:13.783Z,2.97
2019-05-09T16:43:19.211Z,4.23
2019-05-09T16:48:24.640Z,3.30
2019-05-09T16:53:30.050Z,1.73
2019-05-09T16:58:37.431Z,5.33
2019-05-09T17:03:42.762Z,2.00
2019-05-09T17:08:48.374Z,2.33
2019-05-09T17:13:53.931Z,2.40
2019-05-09T17:18:59.357Z,2.87
2019-05-09T17:24:08.119Z,2.13
2019-05-09T17:29:13.313Z,3.93
2019-05-09T17:34:18.729Z,3.07
2019-05-09T17:39:24.167Z,1.83
2019-05-09T17:44:29.638Z,5.87
2019-05-09T17:49:37.345Z,2.87
2019-05-09T17:54:42.202Z,3.53
2019-05-09T17:59:48.762Z,3.40
2019-05-09T18:04:54.681Z,2.40
2019-05-09T18:10:00.120Z,3.63
2019-05-09T18:15:07.682Z,2.53
2019-05-09T18:20:12.951Z,3.57
2019-05-09T18:25:18.859Z,2.53
2019-05-09T18:30:24.320Z,5.93
2019-05-09T18:35:31.041Z,2.07
2019-05-09T18:40:36.667Z,4.70
2019-05-09T18:45:42.137Z,5.13
2019-05-09T18:50:47.671Z,3.77
2019-05-09T18:55:53.109Z,4.73
2019-05-09T19:00:58.541Z,2.93
2019-05-09T19:06:03.974Z,3.30
2019-05-09T19:11:09.431Z,4.50
2019-05-09T19:16:39.033Z,4.90
2019-05-09T19:21:47.862Z,4.07
2019-05-09T19:26:53.341Z,2.70
2019-05-09T19:31:58.841Z,4.43
2019-05-09T19:37:04.304Z,3.03
2019-05-09T19:42:09.876Z,4.37
2019-05-09T19:47:15.326Z,3.57
2019-05-09T19:52:21.128Z,4.50
2019-05-09T19:57:26.973Z,5.77
2019-05-09T20:02:32.547Z,3.43
2019-05-09T20:07:37.945Z,4.60
2019-05-09T20:12:49.087Z,3.53
2019-05-09T20:17:54.693Z,4.70
2019-05-09T20:23:00.262Z,8.13
2019-05-09T20:28:08.657Z,6.00
2019-05-09T20:33:14.171Z,8.30
2019-05-09T20:38:19.766Z,10.10
2019-05-09T20:43:25.449Z,9.90
2019-05-09T20:48:31.093Z,9.53
2019-05-09T20:53:36.726Z,12.50
2019-05-09T20:58:42.398Z,10.80
2019-05-09T21:03:59.746Z,9.10
2019-05-09T21:08:55.376Z,6.63
2019-05-09T21:14:01.011Z,6.33
2019-05-09T21:19:06.897Z,7.37
2019-05-09T21:24:12.516Z,5.00
2019-05-09T21:29:18.167Z,7.77
2019-05-09T21:34:23.797Z,6.20
2019-05-09T21:39:29.316Z,9.73
2019-05-09T21:44:34.736Z,11.57
2019-05-09T21:49:40.169Z,15.23
2019-05-09T21:54:45.579Z,9.97
2019-05-09T21:59:51.164Z,8.20
2019-05-09T22:04:56.615Z,7.37
2019-05-09T22:10:02.120Z,7.40
2019-05-09T22:15:07.541Z,9.70
2019-05-09T22:20:13.054Z,8.60
2019-05-09T22:25:18.838Z,7.10
2019-05-09T22:30:24.238Z,7.27
2019-05-09T22:35:29.682Z,8.63
2019-05-09T22:40:35.129Z,8.70
2019-05-09T22:45:40.632Z,7.90
2019-05-09T22:50:46.078Z,8.00
2019-05-09T22:55:51.825Z,6.97
2019-05-09T23:00:57.324Z,7.13
2019-05-09T23:06:03.062Z,9.57
2019-05-09T23:11:08.536Z,6.20
2019-05-09T23:16:14.153Z,7.27
2019-05-09T23:21:19.641Z,7.53
2019-05-09T23:26:25.463Z,7.40
2019-05-09T23:31:36.448Z,8.20
2019-05-09T23:36:41.892Z,7.47
2019-05-09T23:41:47.358Z,11.10
2019-05-09T23:46:52.857Z,8.93
2019-05-09T23:51:58.319Z,9.93
2019-05-09T23:57:21.156Z,8.00
